Time;durP1;ratioP1;P1;durP2;ratioP2;P2;SDS_P1;SDS_P2;PMS_P1;PMS_P2;Temp;Humidity;BMP_temperature;BMP_pressure;BME280_temperature;BME280_humidity;BME280_pressure;Samples;Min_cycle;Max_cycle;Signal;HPM_P1;HPM_P2
2021/07/18 00:00:33;;;;;;;9.48;7.70;;;21.90;75.30;;;22.07;59.38;94860.06;5030822;28;20214;-86
2021/07/18 00:03:00;;;;;;;9.55;8.35;;;22.00;75.50;;;22.06;60.28;94854.97;5038075;28;20693;-86
2021/07/18 00:05:28;;;;;;;9.50;7.80;;;22.00;75.90;;;22.06;59.98;94857.66;5021263;28;20218;-86
2021/07/18 00:07:55;;;;;;;8.75;7.85;;;21.90;75.70;;;22.03;60.06;94853.66;5037453;28;20612;-87
2021/07/18 00:10:27;;;;;;;9.43;8.35;;;22.00;75.90;;;22.06;60.08;94852.31;5021828;28;20672;-86
2021/07/18 00:12:54;;;;;;;9.95;8.38;;;21.90;75.90;;;22.06;60.38;94868.34;5014202;28;20569;-86
2021/07/18 00:15:21;;;;;;;9.35;8.23;;;22.00;76.10;;;22.06;60.36;94879.03;5034026;28;20315;-86
2021/07/18 00:17:48;;;;;;;8.63;7.70;;;21.90;76.30;;;22.06;60.30;94881.69;5009801;28;20683;-87
2021/07/18 00:20:16;;;;;;;8.57;7.72;;;21.90;76.20;;;22.10;60.05;94900.66;5001549;28;20216;-87
2021/07/18 00:22:44;;;;;;;11.35;7.93;;;21.90;76.30;;;22.17;60.09;94898.53;5005982;28;20219;-87
2021/07/18 00:25:12;;;;;;;8.93;7.93;;;21.90;76.40;;;22.22;60.06;94912.69;5036043;28;20221;-84
2021/07/18 00:27:39;;;;;;;11.15;8.35;;;22.00;76.70;;;22.28;59.94;94892.13;5000940;28;20196;-84
2021/07/18 00:30:08;;;;;;;10.70;8.60;;;22.00;76.60;;;22.28;60.81;94886.78;5033260;28;20255;-83
2021/07/18 00:32:36;;;;;;;14.13;8.18;;;22.10;77.00;;;22.19;60.71;94888.38;5040361;28;20793;-82
2021/07/18 00:35:05;;;;;;;10.32;7.50;;;22.10;76.90;;;22.07;60.90;94873.41;5017935;28;20216;-83
2021/07/18 00:37:33;;;;;;;10.68;9.23;;;22.10;76.90;;;21.95;62.30;94880.88;5019780;28;20191;-83
2021/07/18 00:40:00;;;;;;;13.80;9.27;;;22.00;77.40;;;21.84;62.39;94876.59;5003202;28;20302;-83
2021/07/18 00:42:27;;;;;;;11.93;8.68;;;22.00;77.50;;;21.75;62.83;94876.28;5037229;28;20255;-83
2021/07/18 00:44:54;;;;;;;9.13;7.85;;;21.90;77.50;;;21.68;62.33;94873.03;5009642;28;20219;-83
2021/07/18 00:47:22;;;;;;;7.68;6.88;;;21.90;77.70;;;21.64;62.02;94866.63;5036283;28;20201;-83
2021/07/18 00:49:50;;;;;;;8.75;7.22;;;21.80;77.80;;;21.64;62.30;94875.47;5036275;28;20210;-83
2021/07/18 00:52:17;;;;;;;8.38;7.47;;;21.70;78.10;;;21.63;62.82;94875.72;5025865;28;20199;-81
2021/07/18 00:54:45;;;;;;;9.02;6.70;;;21.70;78.20;;;21.64;62.65;94878.13;5022545;28;20224;-84
2021/07/18 00:57:13;;;;;;;9.73;7.13;;;21.70;78.30;;;21.62;62.91;94868.75;5016355;28;20200;-84
2021/07/18 00:59:40;;;;;;;8.48;7.50;;;21.70;78.50;;;21.57;62.98;94880.25;5016234;28;20634;-82
2021/07/18 01:02:07;;;;;;;9.93;8.05;;;21.60;78.60;;;21.59;63.15;94896.78;5035730;28;20625;-83
2021/07/18 01:04:35;;;;;;;8.75;7.85;;;21.60;78.80;;;21.61;62.65;94907.22;4986201;28;20763;-83
2021/07/18 01:07:04;;;;;;;8.70;7.65;;;21.60;78.90;;;21.62;62.90;94917.63;5015997;28;20197;-84
2021/07/18 01:09:32;;;;;;;10.15;8.07;;;21.60;78.90;;;21.63;63.01;94921.09;5000111;28;20234;-84
2021/07/18 01:12:00;;;;;;;9.73;8.13;;;21.60;79.10;;;21.64;62.64;94915.50;5026183;28;20199;-82
2021/07/18 01:14:28;;;;;;;9.93;8.93;;;21.60;79.30;;;21.65;62.79;94906.41;5018685;28;20229;-82
2021/07/18 01:16:56;;;;;;;9.75;8.23;;;21.70;80.10;;;21.64;63.51;94901.34;5015581;28;20288;-82
2021/07/18 01:19:25;;;;;;;17.33;9.05;;;21.60;79.40;;;21.58;63.83;94874.63;5020056;28;20212;-80
2021/07/18 01:21:58;;;;;;;10.40;8.65;;;21.60;79.70;;;21.50;64.74;94883.13;5033550;28;20242;-80
2021/07/18 01:24:29;;;;;;;9.95;8.70;;;21.60;80.80;;;21.41;64.85;94874.00;5035068;28;20227;-81
2021/07/18 01:26:57;;;;;;;15.30;8.80;;;21.50;81.00;;;21.26;66.75;94862.22;5005150;28;20539;-83
2021/07/18 01:29:27;;;;;;;39.33;8.95;;;21.50;82.10;;;21.24;66.79;94876.88;5016329;28;20227;-85
2021/07/18 01:31:57;;;;;;;11.32;9.07;;;21.40;82.70;;;21.16;68.09;94877.38;5013715;28;20238;-81
2021/07/18 01:34:25;;;;;;;11.57;9.23;;;21.40;83.00;;;21.11;68.49;94870.94;5035229;28;20231;-82
2021/07/18 01:36:53;;;;;;;8.63;7.47;;;21.30;83.90;;;21.06;67.93;94860.25;5034897;28;20196;-82
2021/07/18 01:39:20;;;;;;;7.88;6.70;;;21.30;84.90;;;20.97;68.34;94853.00;5035238;28;20242;-83
2021/07/18 01:41:51;;;;;;;8.38;7.15;;;21.20;85.40;;;21.02;68.38;94872.50;5032936;28;20203;-83
2021/07/18 01:44:18;;;;;;;10.45;8.90;;;21.10;85.50;;;21.01;68.73;94870.09;5034932;28;20246;-83
2021/07/18 01:46:46;;;;;;;13.40;10.13;;;21.10;86.10;;;20.96;68.88;94862.88;5052289;28;20192;-84
2021/07/18 01:49:13;;;;;;;10.10;9.10;;;21.00;86.60;;;20.95;69.13;94870.06;5051598;28;20215;-82
2021/07/18 01:51:40;;;;;;;10.50;9.23;;;21.00;87.80;;;20.99;69.11;94867.69;5000360;28;20196;-83
2021/07/18 01:54:10;;;;;;;9.90;8.57;;;20.90;87.40;;;20.97;68.99;94861.00;5039703;28;20210;-84
2021/07/18 01:56:40;;;;;;;10.77;8.00;;;20.90;87.50;;;21.03;68.78;94867.97;4999398;28;20298;-84
2021/07/18 01:59:08;;;;;;;8.95;8.02;;;20.90;88.00;;;21.03;68.97;94852.78;5015596;28;20211;-83
2021/07/18 02:01:36;;;;;;;9.85;8.57;;;20.90;88.40;;;21.08;68.76;94865.31;5034697;28;20195;-83
2021/07/18 02:04:04;;;;;;;11.65;9.02;;;21.00;88.60;;;21.09;68.90;94870.41;5034589;28;20230;-82
2021/07/18 02:06:32;;;;;;;10.63;8.98;;;20.90;88.60;;;21.07;69.15;94874.41;5035324;28;20192;-82
2021/07/18 02:09:00;;;;;;;11.68;9.75;;;20.90;88.50;;;21.06;69.85;94875.47;5034809;28;20215;-81
2021/07/18 02:11:28;;;;;;;36.30;9.90;;;21.00;89.30;;;20.99;70.18;94866.88;5042062;28;20192;-81
2021/07/18 02:13:58;;;;;;;10.38;7.70;;;21.00;88.80;;;21.01;70.09;94891.44;5010218;28;20191;-81
2021/07/18 02:16:30;;;;;;;11.23;8.85;;;20.90;88.70;;;20.96;70.16;94868.22;5034840;28;20195;-84
2021/07/18 02:19:07;;;;;;;11.57;6.47;;;20.90;88.30;;;20.91;69.64;94849.50;5034845;28;20249;-81
2021/07/18 02:21:39;;;;;;;5.57;5.07;;;20.90;88.30;;;20.87;69.92;94846.56;5020403;28;20187;-81
2021/07/18 02:24:07;;;;;;;6.82;4.80;;;20.80;88.80;;;20.86;70.17;94850.28;5051020;28;20643;-82
2021/07/18 02:26:35;;;;;;;7.22;5.40;;;20.80;89.20;;;20.85;70.02;94850.53;5051380;28;20245;-83
2021/07/18 02:29:03;;;;;;;6.68;4.63;;;20.80;89.50;;;20.87;70.23;94845.75;5018297;28;20295;-83
2021/07/18 02:31:31;;;;;;;7.40;6.57;;;20.80;89.90;;;20.89;70.32;94847.09;5048847;28;20688;-82
2021/07/18 02:33:58;;;;;;;7.40;6.65;;;20.80;90.00;;;20.91;70.79;94844.97;5038907;28;20199;-84
2021/07/18 02:36:26;;;;;;;11.25;5.70;;;20.80;90.00;;;20.91;70.97;94841.50;5039452;28;20633;-82
2021/07/18 02:38:54;;;;;;;8.10;6.07;;;20.80;90.10;;;20.87;70.96;94827.91;5032990;28;20242;-83
2021/07/18 02:41:21;;;;;;;6.20;5.60;;;20.80;90.10;;;20.81;70.90;94826.25;5002957;28;20261;-84
2021/07/18 02:43:49;;;;;;;8.88;7.10;;;20.80;90.10;;;20.89;71.38;94844.44;5036107;28;20258;-85
2021/07/18 02:46:16;;;;;;;8.65;7.30;;;20.80;90.30;;;20.88;70.69;94850.03;5003456;28;20261;-85
2021/07/18 02:48:44;;;;;;;9.52;8.38;;;20.80;90.40;;;20.88;71.46;94844.69;5011345;28;20195;-85
2021/07/18 02:51:11;;;;;;;9.50;7.88;;;20.80;90.40;;;20.89;71.41;94855.09;5037715;28;20223;-83
2021/07/18 02:53:38;;;;;;;8.63;7.75;;;20.80;90.50;;;20.93;71.63;94858.03;5022282;28;20191;-83
2021/07/18 02:56:05;;;;;;;9.35;8.35;;;20.80;90.60;;;20.90;71.20;94854.03;5022455;28;20246;-84
2021/07/18 02:58:33;;;;;;;8.93;8.02;;;20.80;90.70;;;20.93;71.30;94860.72;5010269;28;20195;-84
2021/07/18 03:01:00;;;;;;;10.05;7.18;;;20.80;90.80;;;20.96;71.46;94868.22;5036842;28;20226;-85
2021/07/18 03:03:27;;;;;;;10.27;8.88;;;20.80;90.80;;;20.98;71.80;94866.06;5019544;28;20220;-85
2021/07/18 03:05:55;;;;;;;8.23;7.32;;;20.80;90.90;;;20.98;71.30;94863.41;5018354;28;20691;-85
2021/07/18 03:08:22;;;;;;;8.52;6.90;;;20.80;90.90;;;20.93;71.33;94852.72;5038074;28;20203;-86
2021/07/18 03:10:50;;;;;;;7.85;7.05;;;20.80;91.00;;;21.00;71.87;94857.84;5011330;28;20305;-85
2021/07/18 03:13:17;;;;;;;8.65;7.72;;;20.80;91.10;;;21.00;71.72;94857.84;5030002;28;20578;-86
2021/07/18 03:15:44;;;;;;;10.73;8.43;;;20.90;91.10;;;21.06;71.28;94881.59;5026999;28;20210;-85
2021/07/18 03:18:11;;;;;;;10.60;8.02;;;20.90;91.10;;;21.07;71.66;94877.06;5011096;28;20211;-85
2021/07/18 03:20:40;;;;;;;10.65;8.40;;;20.90;91.10;;;21.06;71.75;94886.91;5014660;28;20211;-86
2021/07/18 03:23:07;;;;;;;11.27;8.63;;;20.90;91.20;;;21.07;72.29;94871.75;5015329;28;20188;-85
2021/07/18 03:25:34;;;;;;;10.75;8.80;;;20.90;91.10;;;20.97;71.94;94859.16;5021563;28;20321;-86
2021/07/18 03:28:02;;;;;;;9.60;8.60;;;20.90;91.20;;;21.03;72.15;94857.28;5027769;28;20196;-86
2021/07/18 03:30:29;;;;;;;12.02;9.48;;;20.90;91.20;;;21.04;72.27;94849.03;5020937;28;20233;-86
2021/07/18 03:32:57;;;;;;;11.13;9.65;;;20.90;91.20;;;21.06;72.28;94857.59;5013571;28;20246;-84
2021/07/18 03:35:24;;;;;;;12.27;10.98;;;20.90;91.20;;;21.05;72.32;94860.53;5026567;28;20670;-85
2021/07/18 03:37:51;;;;;;;12.05;10.00;;;20.90;91.20;;;20.89;72.75;94844.44;5029282;28;20210;-86
2021/07/18 03:40:19;;;;;;;13.30;11.25;;;20.90;91.30;;;21.02;72.94;94864.50;5015653;28;20260;-84
2021/07/18 03:42:46;;;;;;;11.38;10.13;;;20.90;91.30;;;20.97;72.84;94853.81;5016199;28;20199;-84
2021/07/18 03:45:14;;;;;;;12.73;11.32;;;20.90;91.30;;;20.95;72.94;94851.38;5011085;28;20323;-85
2021/07/18 03:47:42;;;;;;;12.00;9.82;;;20.90;91.30;;;21.01;72.79;94854.09;5034857;28;20208;-85
2021/07/18 03:50:10;;;;;;;10.60;9.50;;;21.00;91.40;;;21.00;72.68;94852.50;5018088;28;20219;-84
2021/07/18 03:52:37;;;;;;;13.65;10.93;;;20.90;91.40;;;20.98;73.02;94846.63;5016776;28;20196;-85
2021/07/18 03:55:11;;;;;;;11.98;10.50;;;20.90;91.50;;;21.02;73.03;94851.19;5029245;28;20215;-85
2021/07/18 03:57:38;;;;;;;11.45;9.95;;;20.90;91.50;;;21.02;72.96;94856.50;5016356;28;20203;-85
2021/07/18 04:00:07;;;;;;;12.38;10.90;;;20.90;91.60;;;21.04;73.45;94865.03;4993667;28;20220;-85
2021/07/18 04:02:34;;;;;;;12.00;10.57;;;20.90;91.60;;;21.00;73.25;94849.84;5024427;28;20195;-81
2021/07/18 04:05:02;;;;;;;12.85;11.40;;;20.90;91.70;;;21.06;73.14;94862.91;5051334;28;20234;-82
2021/07/18 04:07:33;;;;;;;12.05;10.15;;;20.90;91.70;;;21.05;73.13;94861.31;5034076;28;20203;-82
2021/07/18 04:10:03;;;;;;;11.55;10.38;;;20.90;91.80;;;21.10;73.53;94869.34;5042832;28;20216;-83
2021/07/18 04:12:30;;;;;;;11.43;10.23;;;20.90;91.80;;;21.08;73.57;94871.47;5016240;28;20199;-84
2021/07/18 04:14:57;;;;;;;11.85;10.60;;;20.90;91.80;;;21.16;73.90;94877.38;5014947;28;20204;-84
2021/07/18 04:17:24;;;;;;;11.43;10.07;;;21.00;91.90;;;21.11;73.91;94870.94;5030292;28;20196;-83
2021/07/18 04:19:52;;;;;;;12.82;11.25;;;21.00;92.00;;;21.18;73.41;94877.91;5020278;28;20216;-85
2021/07/18 04:22:19;;;;;;;12.15;10.73;;;21.00;92.00;;;21.22;73.87;94876.34;5015346;28;20200;-81
2021/07/18 04:24:46;;;;;;;12.38;11.07;;;21.00;92.00;;;21.25;73.38;94878.47;4980384;28;20228;-81
2021/07/18 04:27:13;;;;;;;13.73;12.30;;;21.00;92.00;;;21.26;73.53;94883.56;5009644;28;20244;-82
2021/07/18 04:29:40;;;;;;;11.55;10.43;;;21.10;92.00;;;21.28;73.73;94897.44;5047866;28;20215;-83
2021/07/18 04:32:08;;;;;;;12.38;10.65;;;21.00;92.10;;;21.31;74.01;94897.97;5034745;28;20195;-82
2021/07/18 04:34:36;;;;;;;11.75;10.32;;;21.10;92.10;;;21.28;74.05;94892.09;5035036;28;20211;-82
2021/07/18 04:37:04;;;;;;;12.63;10.57;;;21.10;92.20;;;21.36;74.16;94898.00;5031654;28;20203;-83
2021/07/18 04:39:31;;;;;;;12.60;11.30;;;21.20;92.20;;;21.36;74.12;94893.47;5000248;28;20250;-83
2021/07/18 04:42:00;;;;;;;11.95;10.75;;;21.20;92.30;;;21.27;74.17;94871.03;5019254;28;20603;-84
2021/07/18 04:44:28;;;;;;;12.93;11.60;;;21.20;92.30;;;21.44;74.59;94892.94;5019472;28;20297;-84
2021/07/18 04:46:56;;;;;;;13.60;11.52;;;21.20;92.40;;;21.50;74.72;94896.47;5033337;28;20213;-84
2021/07/18 04:49:25;;;;;;;14.07;11.68;;;21.20;92.40;;;21.54;74.58;94891.41;5001087;28;20212;-84
2021/07/18 04:51:54;;;;;;;13.90;12.40;;;21.30;92.40;;;21.58;74.81;94881.81;5000429;28;20624;-85
2021/07/18 04:54:22;;;;;;;13.57;12.15;;;21.30;92.50;;;21.61;74.36;94886.66;4998075;28;20220;-85
2021/07/18 04:56:49;;;;;;;13.90;12.50;;;21.40;92.50;;;21.67;74.36;94896.28;5026835;28;20311;-85
2021/07/18 04:59:18;;;;;;;13.02;11.73;;;21.40;92.50;;;21.60;74.62;94882.38;5015787;28;20219;-86
2021/07/18 05:01:45;;;;;;;13.20;11.80;;;21.50;92.60;;;21.69;74.83;94894.16;5035162;28;20207;-86
2021/07/18 05:04:12;;;;;;;13.55;12.18;;;21.40;92.70;;;21.63;74.77;94878.38;5034232;28;20228;-85
2021/07/18 05:06:39;;;;;;;14.18;12.75;;;21.50;92.60;;;21.84;74.46;94906.75;5051302;28;20253;-85
2021/07/18 05:09:06;;;;;;;14.30;12.90;;;21.60;92.70;;;21.80;74.81;94894.19;5017712;28;20204;-85
2021/07/18 05:11:34;;;;;;;15.90;13.40;;;21.60;92.70;;;21.90;74.61;94908.34;5000852;28;20192;-86
2021/07/18 05:14:01;;;;;;;14.35;12.93;;;21.60;92.70;;;21.95;74.94;94898.75;5016989;28;20207;-86
2021/07/18 05:16:30;;;;;;;16.13;13.48;;;21.60;92.80;;;22.00;74.77;94901.44;5018920;28;20288;-85
2021/07/18 05:18:57;;;;;;;15.65;14.05;;;21.70;92.80;;;22.07;74.98;94908.13;5051169;28;20187;-85
2021/07/18 05:21:24;;;;;;;15.15;13.55;;;21.70;92.90;;;22.13;74.93;94908.13;5036667;28;20197;-86
2021/07/18 05:23:52;;;;;;;14.48;12.98;;;21.80;93.00;;;22.18;74.91;94892.09;5019779;28;20210;-86
2021/07/18 05:26:19;;;;;;;14.65;13.10;;;21.80;93.00;;;22.21;75.27;94903.06;5009645;28;20227;-85
2021/07/18 05:28:46;;;;;;;15.45;13.85;;;21.90;93.10;;;22.36;74.99;94904.97;5016782;28;20256;-87
2021/07/18 05:31:14;;;;;;;14.55;13.05;;;21.90;93.10;;;22.42;75.26;94908.44;5017458;28;20262;-87
2021/07/18 05:33:41;;;;;;;14.52;13.10;;;22.00;93.10;;;22.51;75.28;94906.88;5018401;28;20192;-87
2021/07/18 05:36:11;;;;;;;16.77;14.20;;;22.10;93.20;;;22.58;75.41;94903.13;5000421;28;20255;-87
2021/07/18 05:38:38;;;;;;;16.15;13.95;;;22.20;93.20;;;22.53;75.05;94888.69;5000670;28;20267;-86
2021/07/18 05:41:05;;;;;;;16.05;14.35;;;22.20;93.20;;;22.68;75.26;94909.25;5016826;28;20223;-87
2021/07/18 05:43:32;;;;;;;14.40;12.90;;;22.30;93.20;;;22.70;75.19;94909.81;5011504;28;20262;-87
2021/07/18 05:46:00;;;;;;;16.33;13.63;;;22.30;93.20;;;22.78;75.03;94916.47;5016812;28;20223;-86
2021/07/18 05:48:30;;;;;;;14.43;13.02;;;22.40;93.20;;;22.77;74.97;94903.38;5017619;28;20566;-86
2021/07/18 05:50:58;;;;;;;14.77;13.32;;;22.50;93.20;;;22.69;75.43;94892.16;5040097;28;20251;-86
2021/07/18 05:53:25;;;;;;;14.75;13.25;;;22.50;93.10;;;22.88;75.19;94917.53;5032551;28;20685;-87
2021/07/18 05:55:52;;;;;;;14.77;12.18;;;22.50;93.10;;;22.81;75.39;94904.44;5049238;28;20706;-87
2021/07/18 05:58:19;;;;;;;14.25;12.75;;;22.60;93.10;;;22.80;75.04;94909.00;5034877;28;20223;-87
2021/07/18 06:00:46;;;;;;;15.70;12.68;;;22.60;93.10;;;22.93;75.22;94915.66;5019686;28;20276;-87
2021/07/18 06:03:14;;;;;;;13.25;12.00;;;22.60;93.00;;;22.97;75.26;94927.44;5052380;28;20187;-86
2021/07/18 06:05:41;;;;;;;16.35;13.35;;;22.70;93.10;;;23.01;75.10;94931.16;5035714;28;20292;-87
2021/07/18 06:08:09;;;;;;;12.75;11.50;;;22.70;93.10;;;23.01;75.28;94925.81;5050679;28;20198;-87
2021/07/18 06:10:36;;;;;;;13.77;12.43;;;22.70;93.10;;;23.00;75.42;94926.09;5019439;28;20670;-87
2021/07/18 06:13:03;;;;;;;13.98;12.60;;;22.70;93.20;;;23.01;75.53;94917.78;5036069;28;20199;-87
2021/07/18 06:15:31;;;;;;;14.07;12.63;;;22.80;93.30;;;23.14;75.63;94932.47;5019389;28;20222;-86
2021/07/18 06:17:58;;;;;;;12.38;11.18;;;22.80;93.30;;;23.18;75.51;94936.25;5017771;28;20680;-82
2021/07/18 06:20:29;;;;;;;13.90;12.50;;;22.80;93.30;;;23.18;75.43;94932.78;5010644;28;20227;-83
2021/07/18 06:22:56;;;;;;;13.70;12.25;;;22.90;93.30;;;23.27;75.81;94925.00;5017080;28;20509;-84
2021/07/18 06:25:24;;;;;;;14.07;11.75;;;22.90;93.30;;;23.34;75.60;94928.19;5030291;28;20235;-85
2021/07/18 06:27:51;;;;;;;14.07;12.07;;;22.90;93.30;;;23.43;76.27;94931.09;5031636;28;20294;-85
2021/07/18 06:30:18;;;;;;;13.50;12.10;;;23.00;93.40;;;23.54;76.24;94932.66;4982750;28;20236;-84
2021/07/18 06:32:46;;;;;;;13.52;12.13;;;23.10;93.60;;;23.64;75.94;94924.59;5015075;28;20196;-84
2021/07/18 06:35:14;;;;;;;13.40;12.10;;;23.20;93.60;;;23.72;75.94;94922.44;4998832;28;20228;-84
2021/07/18 06:37:41;;;;;;;14.02;12.63;;;23.20;93.60;;;23.76;75.81;94918.91;5041224;28;20759;-84
2021/07/18 06:40:10;;;;;;;14.07;12.57;;;23.30;93.70;;;23.90;75.87;94923.66;5014892;28;20226;-83
2021/07/18 06:42:37;;;;;;;13.90;12.50;;;23.40;93.70;;;23.92;76.18;94916.97;5032507;28;20295;-82
2021/07/18 06:45:09;;;;;;;13.63;12.27;;;23.50;93.80;;;24.00;75.74;94910.25;5017664;28;20238;-84
2021/07/18 06:47:36;;;;;;;13.57;12.20;;;23.60;93.80;;;24.20;76.05;94927.28;5020385;28;20199;-83
2021/07/18 06:50:04;;;;;;;13.90;12.50;;;23.70;93.80;;;24.21;76.13;94912.81;5013538;28;20220;-83
2021/07/18 06:52:32;;;;;;;13.95;12.45;;;23.80;93.90;;;24.42;76.39;94932.22;5029822;28;20191;-84
2021/07/18 06:55:00;;;;;;;13.27;11.98;;;23.80;94.00;;;24.51;76.21;94927.88;5015018;28;20227;-83
2021/07/18 06:57:27;;;;;;;13.55;12.25;;;24.00;94.00;;;24.53;75.75;94916.84;5023795;28;20666;-82
2021/07/18 06:59:56;;;;;;;13.82;12.52;;;24.10;94.00;;;24.72;76.09;94935.78;5021213;28;20222;-85
2021/07/18 07:02:23;;;;;;;12.32;11.13;;;24.10;93.90;;;24.80;76.16;94929.78;5005714;28;20207;-85
2021/07/18 07:04:51;;;;;;;13.77;12.32;;;24.20;93.90;;;24.79;75.93;94922.81;5039454;28;20245;-86
2021/07/18 07:07:18;;;;;;;14.07;12.77;;;24.30;93.80;;;24.85;75.55;94920.91;5030641;28;20223;-84
2021/07/18 07:09:45;;;;;;;13.68;12.30;;;24.40;93.70;;;24.92;75.31;94937.47;5010054;28;20227;-85
2021/07/18 07:12:13;;;;;;;12.07;10.88;;;24.50;93.70;;;24.84;75.11;94919.31;5007370;28;20200;-85
2021/07/18 07:14:40;;;;;;;12.43;11.23;;;24.50;93.70;;;24.97;75.64;94936.63;5031617;28;20244;-85
2021/07/18 07:17:07;;;;;;;12.85;11.65;;;24.50;93.70;;;25.03;75.30;94944.34;5027649;28;20201;-84
2021/07/18 07:19:34;;;;;;;13.73;12.38;;;24.50;93.70;;;25.10;75.69;94938.66;5026651;28;20285;-84
2021/07/18 07:22:01;;;;;;;13.00;11.60;;;24.60;93.70;;;25.20;75.91;94941.22;5029234;28;20668;-85
2021/07/18 07:24:30;;;;;;;14.27;12.85;;;24.70;93.80;;;25.24;75.22;94936.91;5011025;28;20216;-84
2021/07/18 07:26:57;;;;;;;13.18;11.88;;;24.80;93.80;;;25.41;75.95;94938.38;5015202;28;20278;-85
2021/07/18 07:29:24;;;;;;;14.40;12.90;;;24.80;94.00;;;25.53;76.38;94946.03;5028104;28;20219;-84
2021/07/18 07:31:51;;;;;;;14.52;13.05;;;24.90;94.10;;;25.64;75.86;94947.50;4991878;28;20204;-84
2021/07/18 07:34:18;;;;;;;13.75;12.45;;;25.00;94.10;;;25.74;75.65;94951.94;5012310;28;20284;-84
2021/07/18 07:36:46;;;;;;;13.13;11.82;;;25.10;94.10;;;25.78;75.66;94952.19;4992351;28;20197;-84
2021/07/18 07:39:14;;;;;;;13.88;12.48;;;25.20;94.00;;;25.84;75.11;94951.84;5025189;28;20504;-85
2021/07/18 07:41:41;;;;;;;13.23;12.02;;;25.30;93.90;;;25.84;74.83;94956.41;5023929;28;20217;-84
2021/07/18 07:44:08;;;;;;;13.55;11.85;;;25.30;93.70;;;25.77;74.84;94937.13;5023632;28;20202;-83
2021/07/18 07:46:36;;;;;;;13.32;11.93;;;25.30;93.50;;;25.84;74.95;94957.22;5025069;28;20647;-84
2021/07/18 07:49:04;;;;;;;12.57;11.40;;;25.30;93.40;;;25.86;75.24;94964.97;5026359;28;20297;-83
2021/07/18 07:51:31;;;;;;;13.20;12.05;;;25.40;93.40;;;25.85;74.93;94958.81;5009802;28;20226;-85
2021/07/18 07:53:59;;;;;;;13.68;12.35;;;25.30;93.30;;;25.83;75.12;94963.69;4996561;28;20275;-84
2021/07/18 07:56:26;;;;;;;13.55;12.25;;;25.40;93.60;;;25.75;74.71;94942.03;5028045;28;20323;-84
2021/07/18 07:58:53;;;;;;;13.27;12.05;;;25.40;93.40;;;25.86;74.91;94956.91;5024158;28;20208;-86
2021/07/18 08:01:20;;;;;;;13.05;11.75;;;25.40;93.30;;;25.84;74.37;94959.91;5044775;28;20227;-85
2021/07/18 08:03:48;;;;;;;14.82;13.35;;;25.40;93.20;;;25.82;74.75;94961.28;5026303;28;20224;-85
2021/07/18 08:06:15;;;;;;;15.65;14.15;;;25.40;93.20;;;25.81;74.41;94959.69;5020536;28;20637;-85
2021/07/18 08:08:43;;;;;;;13.77;12.48;;;25.40;93.10;;;25.80;74.26;94960.75;5008702;28;20201;-84
2021/07/18 08:11:10;;;;;;;14.80;13.30;;;25.40;93.10;;;25.81;74.59;94963.16;5025230;28;20222;-85
2021/07/18 08:13:38;;;;;;;14.88;13.45;;;25.40;93.20;;;25.87;75.09;94962.00;5027127;28;20190;-84
2021/07/18 08:16:07;;;;;;;15.43;13.93;;;25.40;93.40;;;26.02;75.68;94963.72;5008689;28;20217;-85
2021/07/18 08:18:37;;;;;;;15.05;13.63;;;25.40;93.70;;;26.11;75.72;94950.44;5007771;28;20556;-85
2021/07/18 08:21:06;;;;;;;15.45;13.85;;;25.50;93.90;;;26.28;75.55;94955.31;4990289;28;20633;-85
2021/07/18 08:23:34;;;;;;;15.00;13.60;;;25.50;93.90;;;26.46;75.45;94958.28;5039093;28;20298;-85
2021/07/18 08:26:01;;;;;;;14.10;12.68;;;25.70;93.90;;;26.53;75.25;94961.41;5006418;28;20241;-83
2021/07/18 08:28:29;;;;;;;15.25;13.77;;;25.70;94.00;;;26.59;75.26;94967.53;5029938;28;20196;-84
2021/07/18 08:30:56;;;;;;;14.77;13.40;;;25.80;93.90;;;26.63;74.61;94972.00;5006821;28;20215;-84
2021/07/18 08:33:23;;;;;;;14.88;13.38;;;25.80;93.70;;;26.72;75.11;94969.47;5024241;28;20234;-84
2021/07/18 08:35:50;;;;;;;14.95;13.45;;;25.90;93.80;;;26.84;75.21;94971.72;5008844;28;20225;-84
2021/07/18 08:38:17;;;;;;;14.73;13.15;;;26.00;94.00;;;26.93;74.95;94963.81;5006905;28;20218;-84
2021/07/18 08:40:48;;;;;;;14.43;13.13;;;26.10;94.00;;;27.14;75.55;94970.41;5041240;28;20258;-83
2021/07/18 08:43:16;;;;;;;15.40;13.82;;;26.20;94.30;;;27.30;75.41;94975.53;4987103;28;20230;-84
2021/07/18 08:45:47;;;;;;;14.48;12.98;;;26.30;94.10;;;27.43;75.17;94971.31;5024093;28;20238;-86
2021/07/18 08:48:14;;;;;;;14.07;12.77;;;26.40;94.10;;;27.48;74.46;94977.38;4992144;28;20212;-84
2021/07/18 08:50:43;;;;;;;14.27;12.80;;;26.50;93.80;;;27.48;73.60;94974.69;5021936;28;20225;-85
2021/07/18 08:53:11;;;;;;;14.82;13.30;;;26.60;93.50;;;27.50;73.48;94968.22;5032728;28;20210;-85
2021/07/18 08:55:40;;;;;;;13.25;12.00;;;26.70;93.40;;;27.50;73.85;94962.81;5020560;28;20240;-84
2021/07/18 08:58:08;;;;;;;14.43;13.00;;;26.70;93.50;;;27.62;74.28;94966.63;5024200;28;20608;-84
2021/07/18 09:00:35;;;;;;;14.88;13.43;;;26.70;93.50;;;27.72;74.03;94972.91;5004072;28;20223;-85
2021/07/18 09:03:03;;;;;;;13.80;12.50;;;26.70;93.60;;;27.81;74.22;94968.41;5020157;28;20239;-84
2021/07/18 09:05:30;;;;;;;13.15;11.93;;;26.80;93.60;;;27.84;73.93;94964.31;5006961;28;20319;-84
2021/07/18 09:07:57;;;;;;;12.75;11.55;;;26.90;93.60;;;27.93;73.48;94966.00;5022050;28;20236;-84
2021/07/18 09:10:28;;;;;;;13.55;12.23;;;26.90;93.50;;;27.91;73.23;94962.81;5008300;28;20314;-83
2021/07/18 09:13:11;;;;;;;14.07;12.63;;;27.00;93.00;;;27.85;72.23;94960.53;5002762;28;20195;-84
2021/07/18 09:15:50;;;;;;;13.80;12.40;;;27.00;92.70;;;27.76;72.58;94980.09;5009839;28;20689;-85
2021/07/18 09:18:24;;;;;;;12.85;11.55;;;27.00;92.60;;;27.66;72.15;94977.59;5007995;28;20196;-83
2021/07/18 09:20:57;;;;;;;13.25;12.05;;;26.90;92.70;;;27.58;72.86;94979.09;5019477;28;20706;-86
2021/07/18 09:23:30;;;;;;;13.85;12.45;;;26.80;92.50;;;27.56;72.94;94972.41;5031799;28;20202;-85
2021/07/18 09:26:22;;;;;;;12.98;11.77;;;26.80;92.70;;;27.51;72.90;94972.50;5017679;28;20237;-86
2021/07/18 09:28:51;;;;;;;13.90;12.52;;;26.80;92.50;;;27.54;73.54;94979.97;5019937;28;20614;-85
2021/07/18 09:31:37;;;;;;;12.85;11.65;;;26.70;93.00;;;27.60;74.09;94978.78;5001202;28;20289;-85
2021/07/18 09:34:14;;;;;;;12.95;11.65;;;26.70;93.30;;;27.60;73.55;94974.19;5020017;28;20265;-86
2021/07/18 09:36:41;;;;;;;13.00;11.77;;;26.70;92.90;;;27.54;73.29;94980.78;5041506;28;20250;-85
2021/07/18 09:39:13;;;;;;;12.98;11.65;;;26.70;92.90;;;27.45;72.46;94978.00;5030106;28;20234;-84
2021/07/18 09:41:45;;;;;;;13.25;11.95;;;26.70;92.50;;;27.32;72.74;94976.03;5033526;28;20252;-85
2021/07/18 09:44:12;;;;;;;13.10;11.80;;;26.60;92.30;;;27.13;73.26;94968.03;5033867;28;20215;-85
2021/07/18 09:46:39;;;;;;;12.52;11.25;;;26.60;92.50;;;27.08;73.51;94970.81;4995145;28;20222;-83
2021/07/18 09:49:32;;;;;;;13.63;12.05;;;26.50;92.60;;;27.07;73.21;94974.59;5002617;28;20192;-84
2021/07/18 09:52:26;;;;;;;12.95;11.38;;;26.40;92.70;;;27.07;74.30;94980.75;5034830;28;20231;-84
2021/07/18 09:54:57;;;;;;;12.35;11.18;;;26.40;92.70;;;27.10;73.88;94971.28;5020752;28;20293;-84
2021/07/18 09:57:42;;;;;;;12.75;11.45;;;26.30;93.00;;;27.07;73.35;94979.97;5033106;28;20198;-84
2021/07/18 10:00:13;;;;;;;12.65;11.45;;;26.30;92.70;;;27.07;73.43;94977.28;5012995;28;20223;-84
2021/07/18 10:02:41;;;;;;;12.10;11.00;;;26.30;92.80;;;27.03;73.18;94974.38;5016941;28;20247;-84
2021/07/18 10:05:25;;;;;;;12.50;11.30;;;26.30;92.90;;;26.95;72.84;94964.28;5012469;28;20226;-85
2021/07/18 10:08:04;;;;;;;13.73;12.27;;;26.30;92.50;;;26.81;71.78;94977.72;5018659;28;20637;-85
2021/07/18 10:10:37;;;;;;;12.70;11.52;;;26.20;92.10;;;26.64;72.38;94987.06;5031903;28;20229;-84
2021/07/18 10:13:07;;;;;;;13.35;11.70;;;26.10;92.20;;;26.48;72.56;94978.44;5018754;28;20207;-85
2021/07/18 10:15:34;;;;;;;12.35;11.18;;;26.00;92.20;;;26.36;72.58;94978.84;5003254;28;20303;-86